Central, UT (84722)

12:03 AM MST on November 27, 2014 (GMT -0700)
Pine Valley | Change Station
CLOSE
Current Station
Personal Weather Station
Location: Pine Valley, UT
Elevation: 6640 ft
Nearby Weather Stations

Elev 6640 ft 37.39 °N, 113.53 °W | Updated 14 minutes ago

Clear
Clear
35.8 °F
Feels Like 36 °F
N
0.0
Wind Variable Wind from SSE

Today
High -- | Low -- °F
--% Chance of Precip.
Yesterday
High -- | Low -- °F
Precip. -- in
7:26 AM 5:17 PM
Waxing Crescent, 26% visible
Pressure 30.39 in
Visibility 10.0 miles
Clouds Clear
Windchill 36 °F
Dew Point 14 °F
Humidity 40%
Rainfall 0.00 in
Snow Depth Not available.
UV 0 out of 12
Pollen .40 out of 12
Air Quality Not available.
Flu Activity Not available.
METAR KCDC 270653Z AUTO 07003KT 10SM CLR 00/M08 A3043 RMK AO2 SLP289 T00001078 401671050

More Conditions Fewer Conditions

Pressure 30.39 in
Visibility 10.0 miles
Clouds Clear
Windchill 36 °F
Dew Point 14 °F
Humidity 40%
Rainfall 0.00 in
Snow Depth Not available.
UV 0 out of 12
Pollen .40 out of 12
Air Quality Not available.
Flu Activity Not available.
METAR KCDC 270653Z AUTO 07003KT 10SM CLR 00/M08 A3043 RMK AO2 SLP289 T00001078 401671050

More Conditions Fewer Conditions

10-Day Weather Forecast

Almanac

Astronomy

Nov. 27, 2014 Rise Set
Actual Time
Civil Twilight
Nautical Twilight
Astronomical Twilight
Moon
Length of Visible Light
Length of Day
Tomorrow will be .
, % of the Moon is Illuminated

Today's Extremes

State Highs State Lows

Community

WunderPhotos

Upload Photos

1,773,966 photos uploaded!

WunderBlogs® & News

Nearby

Air Quality

  Air Quality AQ Index Pollutant
Not available.

Snow Depth

Station Depth Elevation

Earthquake Activity

City Distance Mag. Time & Date
Minimum magnitude displayed is 2.5.

Coastal Water Temperatures

Place Temperature

Nearby Weather Stations